createdAt,value
2017-06-13T00:01:19.465Z,60.81
2017-06-13T00:03:46.997Z,61.76
2017-06-13T00:06:14.557Z,62.60
2017-06-13T00:08:42.126Z,61.81
2017-06-13T00:11:09.657Z,61.96
2017-06-13T00:13:37.188Z,61.90
2017-06-13T00:16:04.758Z,61.77
2017-06-13T00:18:32.618Z,62.34
2017-06-13T00:21:00.158Z,62.60
2017-06-13T00:23:27.747Z,63.45
2017-06-13T00:25:55.286Z,63.42
2017-06-13T00:28:22.809Z,62.91
2017-06-13T00:30:50.374Z,63.37
2017-06-13T00:33:17.909Z,63.04
2017-06-13T00:35:45.734Z,63.03
2017-06-13T00:38:13.297Z,63.21
2017-06-13T00:40:40.822Z,63.24
2017-06-13T00:43:08.366Z,64.20
2017-06-13T00:45:35.957Z,63.86
2017-06-13T00:48:03.481Z,63.64
2017-06-13T00:50:31.027Z,63.21
2017-06-13T00:52:58.589Z,63.39
2017-06-13T00:55:26.126Z,63.39
2017-06-13T00:57:53.658Z,63.36
2017-06-13T01:00:21.333Z,63.33
2017-06-13T01:02:48.873Z,63.01
2017-06-13T01:05:16.400Z,63.08
2017-06-13T01:07:43.966Z,63.24
2017-06-13T01:10:11.510Z,63.20
2017-06-13T01:12:39.043Z,63.07
2017-06-13T01:15:06.609Z,65.04
2017-06-13T01:17:34.155Z,65.43
2017-06-13T01:20:01.714Z,64.13
2017-06-13T01:22:29.292Z,64.67
2017-06-13T01:24:56.829Z,63.86
2017-06-13T01:27:24.357Z,63.76
2017-06-13T01:29:51.936Z,63.51
2017-06-13T01:32:19.515Z,63.70
2017-06-13T01:34:47.073Z,63.54
2017-06-13T01:37:14.623Z,63.96
2017-06-13T01:39:42.235Z,63.61
2017-06-13T01:42:09.806Z,63.55
2017-06-13T01:44:37.358Z,63.77
2017-06-13T01:47:04.949Z,63.49
2017-06-13T01:49:32.489Z,63.64
2017-06-13T01:52:00.034Z,63.71
2017-06-13T01:54:27.619Z,63.48
2017-06-13T01:56:55.151Z,63.56
2017-06-13T01:59:22.688Z,65.29
2017-06-13T02:01:50.266Z,64.58
2017-06-13T02:04:17.829Z,64.62
2017-06-13T02:06:45.360Z,64.64
2017-06-13T02:09:12.925Z,64.65
2017-06-13T02:11:40.446Z,64.74
2017-06-13T02:14:07.980Z,65.33
2017-06-13T02:16:35.541Z,65.31
2017-06-13T02:19:03.076Z,65.26
2017-06-13T02:21:30.609Z,66.01
2017-06-13T02:23:58.177Z,66.46
2017-06-13T02:26:25.938Z,65.93
2017-06-13T02:28:53.469Z,65.74
2017-06-13T02:31:21.075Z,65.67
2017-06-13T02:33:48.617Z,65.71
2017-06-13T02:36:16.145Z,66.75
2017-06-13T02:38:43.713Z,65.85
2017-06-13T02:41:11.242Z,65.22
2017-06-13T02:43:38.786Z,66.49
2017-06-13T02:46:06.362Z,66.13
2017-06-13T02:48:33.901Z,67.34
2017-06-13T02:51:01.450Z,66.11
2017-06-13T02:53:29.049Z,66.08
2017-06-13T02:55:56.582Z,65.87
2017-06-13T02:58:24.113Z,65.62
2017-06-13T03:00:51.694Z,65.20
2017-06-13T03:03:19.220Z,65.00
2017-06-13T03:05:47.077Z,65.61
2017-06-13T03:08:14.643Z,65.67
2017-06-13T03:10:42.169Z,65.54
2017-06-13T03:13:09.703Z,65.83
2017-06-13T03:15:37.270Z,66.33
2017-06-13T03:18:04.807Z,65.80
2017-06-13T03:20:32.338Z,65.18
2017-06-13T03:22:59.906Z,67.84
2017-06-13T03:25:27.463Z,67.40
2017-06-13T03:27:55.031Z,66.46
2017-06-13T03:30:22.733Z,66.00
2017-06-13T03:32:50.263Z,66.46
2017-06-13T03:35:17.793Z,65.42
2017-06-13T03:37:45.670Z,64.74
2017-06-13T03:40:13.203Z,64.85
2017-06-13T03:42:40.741Z,63.94
2017-06-13T03:45:08.308Z,64.54
2017-06-13T03:47:35.839Z,64.79
2017-06-13T03:50:03.382Z,64.37
2017-06-13T03:52:30.941Z,64.33
2017-06-13T03:54:58.481Z,64.01
2017-06-13T03:57:26.023Z,64.07
2017-06-13T03:59:53.595Z,63.72
2017-06-13T04:02:21.205Z,63.89
2017-06-13T04:04:48.750Z,63.87
2017-06-13T04:07:16.290Z,63.95
2017-06-13T04:09:43.872Z,64.58
2017-06-13T04:12:11.474Z,65.34
2017-06-13T04:14:39.009Z,66.00
2017-06-13T04:17:06.584Z,65.29
2017-06-13T04:19:34.129Z,67.04
2017-06-13T04:22:01.665Z,66.98
2017-06-13T04:24:29.266Z,64.78
2017-06-13T04:26:56.869Z,65.46
2017-06-13T04:29:24.421Z,65.43
2017-06-13T04:31:52.010Z,64.71
2017-06-13T04:34:19.541Z,64.63
2017-06-13T04:36:47.083Z,64.70
2017-06-13T04:39:14.688Z,64.37
2017-06-13T04:41:42.238Z,64.38
2017-06-13T04:44:09.781Z,64.56
2017-06-13T04:46:37.369Z,64.78
2017-06-13T04:49:04.912Z,64.37
2017-06-13T04:51:32.458Z,64.71
2017-06-13T04:54:00.035Z,64.75
2017-06-13T04:56:27.577Z,64.92
2017-06-13T04:58:55.117Z,65.37
2017-06-13T05:01:22.982Z,65.37
2017-06-13T05:03:50.518Z,64.27
2017-06-13T05:06:18.081Z,64.90
2017-06-13T05:08:45.674Z,65.33
2017-06-13T05:11:13.209Z,64.74
2017-06-13T05:13:40.755Z,64.45
2017-06-13T05:16:08.337Z,63.85
2017-06-13T05:18:35.886Z,63.44
2017-06-13T05:21:03.430Z,63.66
2017-06-13T05:23:31.031Z,63.76
2017-06-13T05:25:58.565Z,62.43
2017-06-13T05:28:26.098Z,62.16
2017-06-13T05:30:53.678Z,62.01
2017-06-13T05:33:21.226Z,62.51
2017-06-13T05:35:48.765Z,62.48
2017-06-13T05:38:16.338Z,62.37
2017-06-13T05:40:43.886Z,61.92
2017-06-13T05:43:11.428Z,62.29
2017-06-13T05:48:06.146Z,60.86
2017-06-13T05:50:33.747Z,60.73
2017-06-13T05:53:01.337Z,60.48
2017-06-13T05:55:28.886Z,59.60
2017-06-13T05:57:56.752Z,58.42
2017-06-13T06:00:24.430Z,58.79
2017-06-13T06:02:52.301Z,59.91
2017-06-13T06:05:19.837Z,59.31
2017-06-13T06:07:47.437Z,60.17
2017-06-13T06:10:14.974Z,59.26
2017-06-13T06:12:42.530Z,58.67
2017-06-13T06:15:10.155Z,59.21
2017-06-13T06:17:37.694Z,59.15
2017-06-13T06:20:05.246Z,57.97
2017-06-13T06:22:32.845Z,57.87
2017-06-13T06:25:00.385Z,57.71
2017-06-13T06:27:27.936Z,57.54
2017-06-13T06:29:55.534Z,56.83
2017-06-13T06:32:23.141Z,57.85
2017-06-13T06:34:50.683Z,57.22
2017-06-13T06:37:18.218Z,57.67
2017-06-13T06:39:45.786Z,58.07
2017-06-13T06:42:13.341Z,58.21
2017-06-13T06:44:40.879Z,56.40
2017-06-13T06:47:08.454Z,56.43
2017-06-13T06:49:36.405Z,56.50
2017-06-13T06:52:03.943Z,57.16
2017-06-13T06:54:31.533Z,57.38
2017-06-13T06:56:59.079Z,56.01
2017-06-13T06:59:26.849Z,55.51
2017-06-13T07:01:54.425Z,55.26
2017-06-13T07:04:21.960Z,55.39
2017-06-13T07:06:49.505Z,56.09
2017-06-13T07:09:17.095Z,56.24
2017-06-13T07:11:44.629Z,55.20
2017-06-13T07:14:12.166Z,55.44
2017-06-13T07:16:39.753Z,55.25
2017-06-13T07:19:07.297Z,55.02
2017-06-13T07:21:34.850Z,54.85
2017-06-13T07:24:02.457Z,54.01
2017-06-13T07:26:30.009Z,53.94
2017-06-13T07:28:57.549Z,52.33
2017-06-13T07:31:25.130Z,53.30
2017-06-13T07:33:52.675Z,53.19
2017-06-13T07:36:20.443Z,53.17
2017-06-13T07:38:48.014Z,52.96
2017-06-13T07:41:15.782Z,52.84
2017-06-13T07:43:43.349Z,53.18
2017-06-13T07:46:11.202Z,53.00
2017-06-13T07:48:39.009Z,51.81
2017-06-13T07:51:06.557Z,50.80
2017-06-13T07:53:34.434Z,51.21
2017-06-13T07:56:02.363Z,51.11
2017-06-13T07:58:29.902Z,51.83
2017-06-13T08:00:57.859Z,51.65
2017-06-13T08:03:25.697Z,50.72
2017-06-13T08:05:53.279Z,49.92
2017-06-13T08:08:20.854Z,50.17
2017-06-13T08:10:48.401Z,50.93
2017-06-13T08:13:15.946Z,50.72
2017-06-13T08:15:43.526Z,51.09
2017-06-13T08:18:11.298Z,49.80
2017-06-13T08:20:39.126Z,49.02
2017-06-13T08:23:06.711Z,48.51
2017-06-13T08:25:34.478Z,48.86
2017-06-13T08:28:02.032Z,48.72
2017-06-13T08:30:29.638Z,48.06
2017-06-13T08:32:57.413Z,48.91
2017-06-13T08:35:25.172Z,48.47
2017-06-13T08:37:52.741Z,47.31
2017-06-13T08:40:20.293Z,46.46
2017-06-13T08:42:47.825Z,45.93
2017-06-13T08:45:15.395Z,44.53
2017-06-13T08:47:42.929Z,45.40
2017-06-13T08:50:10.472Z,44.71
2017-06-13T08:52:38.043Z,45.14
2017-06-13T08:55:05.598Z,43.83
2017-06-13T08:57:33.145Z,43.49
2017-06-13T09:00:00.717Z,42.75
2017-06-13T09:02:28.286Z,41.80
2017-06-13T09:04:55.822Z,40.71
2017-06-13T09:07:23.588Z,40.63
2017-06-13T09:09:51.179Z,40.79
2017-06-13T09:12:18.705Z,38.41
2017-06-13T09:14:46.232Z,39.27
2017-06-13T09:17:13.830Z,38.13
2017-06-13T09:19:41.361Z,38.33
2017-06-13T09:22:08.895Z,38.94
2017-06-13T09:24:36.716Z,38.66
2017-06-13T09:27:04.580Z,38.70
2017-06-13T09:29:32.190Z,36.19
2017-06-13T09:31:59.770Z,35.73
2017-06-13T09:34:27.303Z,35.03
2017-06-13T09:36:55.072Z,34.64
2017-06-13T09:39:22.678Z,34.09
2017-06-13T09:41:50.228Z,34.51
2017-06-13T09:44:17.769Z,34.05
2017-06-13T09:46:45.347Z,35.43
2017-06-13T09:49:13.219Z,35.09
2017-06-13T09:51:40.765Z,34.45
2017-06-13T09:54:08.347Z,34.94
2017-06-13T09:56:36.114Z,34.39
2017-06-13T09:59:03.659Z,34.04
2017-06-13T10:01:31.497Z,32.30
2017-06-13T10:03:59.263Z,32.85
2017-06-13T10:06:26.797Z,32.52
2017-06-13T10:08:54.898Z,33.07
2017-06-13T10:11:22.752Z,34.65
2017-06-13T10:13:50.664Z,34.47
2017-06-13T10:16:18.224Z,34.20
2017-06-13T10:18:45.755Z,33.70
2017-06-13T10:21:13.648Z,34.47
2017-06-13T10:23:41.219Z,33.58
2017-06-13T10:26:08.759Z,33.87
2017-06-13T10:28:36.531Z,33.22
2017-06-13T10:31:04.330Z,33.69
2017-06-13T10:33:31.895Z,34.19
2017-06-13T10:35:59.445Z,34.66
2017-06-13T10:38:27.790Z,34.60
2017-06-13T10:40:55.326Z,35.41
2017-06-13T10:43:22.893Z,35.37
2017-06-13T10:45:50.473Z,35.91
2017-06-13T10:48:18.337Z,35.50
2017-06-13T10:50:46.205Z,36.24
2017-06-13T10:53:13.782Z,36.05
2017-06-13T10:55:41.696Z,36.19
2017-06-13T10:58:09.237Z,35.92
2017-06-13T11:00:36.848Z,36.23
2017-06-13T11:03:04.378Z,35.68
2017-06-13T11:05:32.285Z,35.06
2017-06-13T11:07:59.871Z,35.99
2017-06-13T11:10:27.710Z,35.12
2017-06-13T11:12:55.246Z,34.87
2017-06-13T11:15:22.974Z,35.02
2017-06-13T11:17:50.800Z,36.45
2017-06-13T11:20:18.345Z,35.07
2017-06-13T11:22:45.925Z,35.14
2017-06-13T11:25:13.493Z,35.63
2017-06-13T11:27:41.041Z,35.38
2017-06-13T11:30:08.747Z,35.76
2017-06-13T11:32:36.278Z,35.40
2017-06-13T11:35:04.051Z,35.48
2017-06-13T11:37:31.645Z,36.23
2017-06-13T11:39:59.425Z,35.80
2017-06-13T11:42:26.960Z,36.16
2017-06-13T11:44:54.554Z,35.02
2017-06-13T11:47:22.738Z,35.37
2017-06-13T11:49:50.274Z,37.47
2017-06-13T11:52:17.866Z,36.28
2017-06-13T11:54:45.418Z,38.31
2017-06-13T11:57:12.966Z,37.00
2017-06-13T11:59:40.546Z,36.81
2017-06-13T12:02:08.150Z,37.31
2017-06-13T12:04:35.755Z,37.32
2017-06-13T12:07:03.290Z,37.06
2017-06-13T12:09:32.318Z,36.59
2017-06-13T12:12:02.658Z,36.32
2017-06-13T12:14:30.189Z,34.84
2017-06-13T12:16:57.767Z,30.39
2017-06-13T12:19:25.537Z,30.15
2017-06-13T12:21:53.070Z,29.51
2017-06-13T12:24:20.654Z,30.11
2017-06-13T12:26:48.226Z,27.23
2017-06-13T12:29:15.790Z,26.27
2017-06-13T12:31:43.372Z,25.92
2017-06-13T12:34:11.154Z,25.41
2017-06-13T12:36:38.917Z,25.08
2017-06-13T12:39:07.219Z,24.97
2017-06-13T12:41:34.781Z,25.80
2017-06-13T12:44:02.660Z,26.28
2017-06-13T12:46:30.243Z,25.83
2017-06-13T12:48:57.779Z,26.04
2017-06-13T12:51:25.314Z,26.32
2017-06-13T12:53:52.905Z,26.57
2017-06-13T12:56:20.439Z,26.30
2017-06-13T12:58:48.201Z,26.34
2017-06-13T13:01:15.777Z,26.81
2017-06-13T13:03:43.345Z,27.05
2017-06-13T13:06:10.888Z,27.46
2017-06-13T13:08:38.456Z,28.03
2017-06-13T13:11:05.986Z,27.77
2017-06-13T13:13:33.749Z,27.95
2017-06-13T13:16:01.544Z,28.49
2017-06-13T13:18:29.084Z,28.44
2017-06-13T13:20:56.646Z,28.74
2017-06-13T13:23:24.230Z,28.47
2017-06-13T13:25:51.770Z,29.30
2017-06-13T13:28:54.181Z,29.99
2017-06-13T13:31:21.861Z,30.72
2017-06-13T13:33:50.321Z,31.10
2017-06-13T13:36:17.856Z,31.49
2017-06-13T13:38:45.429Z,31.73
2017-06-13T13:41:13.259Z,32.49
2017-06-13T13:43:40.990Z,33.62
2017-06-13T13:46:08.578Z,34.65
2017-06-13T13:48:36.110Z,35.61
2017-06-13T13:51:03.656Z,35.86
2017-06-13T13:53:31.222Z,36.62
2017-06-13T13:55:58.993Z,36.43
2017-06-13T13:58:26.547Z,36.08
2017-06-13T14:00:54.203Z,36.45
2017-06-13T14:03:21.752Z,35.86
2017-06-13T14:05:49.295Z,35.82
2017-06-13T14:08:18.063Z,36.38
2017-06-13T14:10:45.676Z,36.47
2017-06-13T14:13:13.209Z,36.68
2017-06-13T14:15:41.193Z,36.40
2017-06-13T14:18:08.743Z,37.06
2017-06-13T14:20:36.301Z,37.10
2017-06-13T14:23:03.915Z,37.83
2017-06-13T14:25:31.765Z,37.96
2017-06-13T14:27:59.322Z,38.73
2017-06-13T14:30:27.081Z,38.13
2017-06-13T14:32:54.916Z,38.46
2017-06-13T14:35:22.450Z,38.81
2017-06-13T14:37:50.021Z,38.69
2017-06-13T14:40:17.557Z,38.70
2017-06-13T14:42:45.110Z,38.89
2017-06-13T14:45:12.698Z,39.08
2017-06-13T14:47:40.305Z,39.63
2017-06-13T14:50:07.834Z,39.61
2017-06-13T14:52:35.773Z,40.01
2017-06-13T14:55:03.302Z,39.97
2017-06-13T14:57:31.135Z,40.25
2017-06-13T14:59:58.701Z,40.45
2017-06-13T15:02:26.939Z,40.36
2017-06-13T15:04:54.465Z,40.14
2017-06-13T15:07:22.030Z,40.13
2017-06-13T15:09:49.877Z,40.21
2017-06-13T15:12:18.085Z,40.37
2017-06-13T15:14:45.634Z,40.58
2017-06-13T15:17:13.506Z,40.49
2017-06-13T15:19:41.451Z,39.86
2017-06-13T15:22:09.673Z,39.61
2017-06-13T15:24:37.326Z,39.42
2017-06-13T15:27:05.184Z,39.47
2017-06-13T15:29:32.762Z,39.40
2017-06-13T15:32:00.339Z,39.28
2017-06-13T15:34:27.903Z,39.29
2017-06-13T15:36:55.462Z,39.06
2017-06-13T15:39:23.037Z,39.32
2017-06-13T15:41:50.575Z,39.48
2017-06-13T15:44:18.102Z,39.20
2017-06-13T15:46:45.666Z,39.11
2017-06-13T15:49:13.211Z,39.36
2017-06-13T15:51:40.746Z,39.69
2017-06-13T15:54:08.304Z,40.27
2017-06-13T15:56:35.852Z,40.25
2017-06-13T15:59:03.388Z,40.64
2017-06-13T16:01:31.027Z,40.85
2017-06-13T16:03:58.586Z,40.82
2017-06-13T16:06:26.132Z,41.14
2017-06-13T16:08:53.701Z,41.43
2017-06-13T16:11:21.237Z,41.87
2017-06-13T16:13:48.783Z,41.65
2017-06-13T16:16:16.566Z,41.91
2017-06-13T16:18:44.381Z,42.16
2017-06-13T16:21:11.922Z,42.13
2017-06-13T16:23:39.510Z,42.36
2017-06-13T16:26:07.327Z,42.21
2017-06-13T16:28:35.238Z,42.19
2017-06-13T16:31:02.805Z,42.63
2017-06-13T16:33:30.400Z,42.86
2017-06-13T16:35:57.973Z,43.29
2017-06-13T16:38:25.562Z,43.65
2017-06-13T16:40:53.095Z,44.75
2017-06-13T16:43:20.652Z,45.09
2017-06-13T16:45:48.232Z,45.22
2017-06-13T16:48:15.781Z,45.10
2017-06-13T16:50:43.320Z,45.31
2017-06-13T16:53:10.895Z,45.80
2017-06-13T16:55:38.429Z,46.21
2017-06-13T16:58:06.188Z,45.84
2017-06-13T17:00:33.913Z,45.59
2017-06-13T17:03:01.474Z,45.97
2017-06-13T17:05:29.309Z,45.39
2017-06-13T17:07:56.869Z,45.38
2017-06-13T17:10:24.397Z,47.03
2017-06-13T17:12:51.930Z,46.39
2017-06-13T17:15:19.485Z,46.28
2017-06-13T17:17:47.112Z,46.81
2017-06-13T17:20:15.177Z,47.20
2017-06-13T17:22:42.765Z,47.35
2017-06-13T17:25:10.926Z,46.85
2017-06-13T17:27:38.464Z,47.37
2017-06-13T17:30:08.129Z,47.38
2017-06-13T17:32:35.670Z,47.25
2017-06-13T17:35:03.236Z,47.69
2017-06-13T17:37:30.842Z,47.29
2017-06-13T17:39:58.407Z,47.40
2017-06-13T17:42:25.937Z,47.40
2017-06-13T17:44:53.520Z,47.39
2017-06-13T17:47:21.062Z,47.33
2017-06-13T17:49:48.615Z,47.51
2017-06-13T17:52:16.251Z,47.97
2017-06-13T17:54:43.818Z,47.57
2017-06-13T17:57:11.394Z,48.20
2017-06-13T17:59:39.131Z,47.92
2017-06-13T18:02:06.810Z,48.23
2017-06-13T18:04:34.530Z,48.44
2017-06-13T18:07:02.195Z,48.61
2017-06-13T18:09:30.188Z,49.14
2017-06-13T18:11:57.953Z,49.47
2017-06-13T18:14:25.730Z,49.43
2017-06-13T18:16:53.509Z,49.02
2017-06-13T18:19:22.647Z,49.39
2017-06-13T18:21:50.298Z,49.60
2017-06-13T18:24:18.338Z,50.13
2017-06-13T18:26:46.370Z,49.85
2017-06-13T18:29:14.152Z,49.72
2017-06-13T18:31:41.979Z,50.10
2017-06-13T18:34:10.018Z,49.94
2017-06-13T18:36:37.852Z,49.90
2017-06-13T18:39:15.781Z,50.00
2017-06-13T18:41:43.685Z,49.62
2017-06-13T18:44:11.715Z,50.00
2017-06-13T18:46:39.460Z,49.98
2017-06-13T18:49:07.258Z,50.46
2017-06-13T18:51:35.077Z,49.93
2017-06-13T18:54:02.891Z,49.80
2017-06-13T18:56:30.775Z,49.88
2017-06-13T18:58:59.840Z,50.07
2017-06-13T19:01:27.779Z,50.12
2017-06-13T19:03:56.611Z,50.23
2017-06-13T19:06:24.459Z,50.36
2017-06-13T19:08:52.357Z,50.43
2017-06-13T19:11:20.101Z,50.62
2017-06-13T19:13:48.073Z,51.26
2017-06-13T19:16:15.844Z,51.10
2017-06-13T19:18:43.952Z,50.94
2017-06-13T19:21:12.037Z,50.85
2017-06-13T19:23:39.813Z,50.73
2017-06-13T19:26:07.613Z,50.81
2017-06-13T19:28:35.421Z,50.72
2017-06-13T19:31:03.424Z,50.80
2017-06-13T19:33:31.194Z,50.81
2017-06-13T19:35:59.424Z,50.85
2017-06-13T19:38:27.927Z,50.83
2017-06-13T19:40:56.009Z,51.35
2017-06-13T19:43:23.822Z,51.29
2017-06-13T19:45:51.682Z,51.42
2017-06-13T19:48:19.725Z,52.30
2017-06-13T19:50:47.833Z,52.19
2017-06-13T19:53:15.631Z,51.89
2017-06-13T19:55:43.432Z,51.69
2017-06-13T19:58:11.202Z,52.06
2017-06-13T20:00:39.519Z,52.47
2017-06-13T20:03:07.346Z,52.77
2017-06-13T20:05:35.233Z,52.49
2017-06-13T20:08:03.061Z,52.19
2017-06-13T20:10:30.773Z,52.13
2017-06-13T20:12:58.384Z,52.25
2017-06-13T20:15:26.127Z,52.52
2017-06-13T20:17:53.815Z,52.77
2017-06-13T20:20:21.586Z,52.47
2017-06-13T20:22:54.754Z,52.56
2017-06-13T20:25:22.446Z,53.16
2017-06-13T20:27:50.255Z,52.81
2017-06-13T20:30:25.126Z,52.84
2017-06-13T20:32:52.838Z,52.75
2017-06-13T20:35:26.042Z,53.12
2017-06-13T20:37:53.618Z,53.12
2017-06-13T20:40:21.269Z,53.01
2017-06-13T20:42:48.896Z,53.01
2017-06-13T20:45:16.482Z,52.98
2017-06-13T20:47:44.032Z,52.98
2017-06-13T20:50:11.607Z,53.07
2017-06-13T20:52:39.155Z,52.66
2017-06-13T20:55:06.690Z,52.49
2017-06-13T20:57:34.260Z,53.05
2017-06-13T21:00:01.802Z,52.92
2017-06-13T21:02:29.380Z,52.82
2017-06-13T21:04:56.959Z,53.21
2017-06-13T21:07:24.514Z,53.12
2017-06-13T21:09:52.084Z,53.33
2017-06-13T21:12:19.626Z,53.26
2017-06-13T21:14:47.851Z,52.81
2017-06-13T21:17:15.427Z,52.69
2017-06-13T21:19:43.240Z,52.79
2017-06-13T21:22:10.782Z,52.63
2017-06-13T21:24:38.359Z,52.90
2017-06-13T21:27:05.907Z,53.11
2017-06-13T21:29:33.455Z,53.11
2017-06-13T21:32:01.051Z,52.97
2017-06-13T21:34:28.590Z,53.02
2017-06-13T21:36:56.140Z,53.24
2017-06-13T21:39:23.733Z,53.12
2017-06-13T21:41:51.274Z,53.02
2017-06-13T21:44:18.814Z,53.02
2017-06-13T21:46:46.405Z,53.01
2017-06-13T21:49:13.946Z,53.26
2017-06-13T21:51:41.810Z,53.05
2017-06-13T21:54:09.395Z,52.98
2017-06-13T21:56:37.670Z,53.31
2017-06-13T21:59:05.266Z,53.23
2017-06-13T22:01:33.693Z,53.10
2017-06-13T22:04:01.329Z,53.43
2017-06-13T22:06:28.879Z,53.45
2017-06-13T22:08:56.466Z,53.34
2017-06-13T22:11:24.785Z,53.28
2017-06-13T22:13:52.549Z,53.42
2017-06-13T22:16:20.194Z,53.11
2017-06-13T22:18:48.370Z,53.21
2017-06-13T22:21:16.190Z,53.28
2017-06-13T22:23:43.808Z,53.01
2017-06-13T22:26:11.500Z,53.61
2017-06-13T22:28:39.037Z,53.44
2017-06-13T22:31:06.667Z,54.02
2017-06-13T22:33:34.270Z,54.10
2017-06-13T22:36:02.309Z,53.96
2017-06-13T22:38:29.942Z,54.18
2017-06-13T22:40:57.497Z,54.58
2017-06-13T22:43:25.035Z,54.47
2017-06-13T22:45:52.633Z,54.42
2017-06-13T22:48:20.446Z,54.29
2017-06-13T22:50:48.287Z,54.08
2017-06-13T22:53:15.897Z,53.88
2017-06-13T22:55:43.814Z,54.13
2017-06-13T22:58:12.457Z,54.82
2017-06-13T23:00:40.485Z,55.34
2017-06-13T23:03:08.382Z,55.44
2017-06-13T23:05:35.989Z,55.81
2017-06-13T23:08:03.805Z,56.00
2017-06-13T23:10:31.337Z,56.23
2017-06-13T23:12:59.019Z,55.86
2017-06-13T23:15:27.126Z,55.90
2017-06-13T23:17:54.789Z,57.07
2017-06-13T23:20:22.937Z,57.77
2017-06-13T23:22:50.706Z,57.55
2017-06-13T23:25:18.754Z,57.77
2017-06-13T23:27:46.778Z,57.49
2017-06-13T23:30:14.518Z,57.23
2017-06-13T23:32:42.274Z,57.21
2017-06-13T23:35:10.131Z,57.16
2017-06-13T23:37:37.777Z,56.82
2017-06-13T23:40:05.630Z,57.90
2017-06-13T23:42:33.763Z,59.30
2017-06-13T23:45:01.524Z,58.78
2017-06-13T23:47:29.388Z,59.31
2017-06-13T23:49:57.054Z,58.32
2017-06-13T23:52:24.847Z,58.45
2017-06-13T23:54:52.389Z,58.10
2017-06-13T23:57:19.925Z,57.88
2017-06-13T23:59:47.497Z,58.57
